createdAt,value
2022-08-26T00:08:21.607Z,76.60
2022-08-26T00:18:22.952Z,77.51
2022-08-26T00:28:24.316Z,79.28
2022-08-26T00:38:26.109Z,78.59
2022-08-26T00:48:31.856Z,79.58
2022-08-26T00:58:34.187Z,79.95
2022-08-26T01:08:35.520Z,81.30
2022-08-26T01:18:36.900Z,81.96
2022-08-26T01:28:38.462Z,82.16
2022-08-26T01:38:42.125Z,81.21
2022-08-26T01:48:43.653Z,81.00
2022-08-26T01:58:45.311Z,81.77
2022-08-26T02:08:46.653Z,83.39
2022-08-26T02:18:48.040Z,87.09
2022-08-26T02:28:49.466Z,89.97
2022-08-26T02:38:50.797Z,91.19
2022-08-26T02:48:53.472Z,92.64
2022-08-26T02:58:55.218Z,92.00
2022-08-26T03:08:56.582Z,95.27
2022-08-26T03:18:58.043Z,95.42
2022-08-26T03:29:19.182Z,93.58
2022-08-26T03:39:20.583Z,99.11
2022-08-26T03:49:22.843Z,98.40
2022-08-26T03:59:24.253Z,100.00
2022-08-26T04:09:26.184Z,100.00
2022-08-26T04:19:28.026Z,100.00
2022-08-26T04:29:29.421Z,100.00
2022-08-26T04:39:30.795Z,100.00
2022-08-26T04:49:35.240Z,99.60
2022-08-26T04:59:39.340Z,99.50
2022-08-26T05:09:40.943Z,100.00
2022-08-26T05:19:43.010Z,100.00
2022-08-26T05:29:44.475Z,100.00
2022-08-26T05:39:51.218Z,100.00
2022-08-26T05:49:53.056Z,100.00
2022-08-26T05:59:54.430Z,100.00
2022-08-26T06:10:09.971Z,97.80
2022-08-26T06:20:17.218Z,94.47
2022-08-26T06:30:18.697Z,92.67
2022-08-26T06:40:22.673Z,91.04
2022-08-26T06:50:24.408Z,91.93
2022-08-26T07:00:26.366Z,83.79
2022-08-26T07:10:27.797Z,80.83
2022-08-26T07:20:29.075Z,75.62
2022-08-26T07:30:30.430Z,66.98
2022-08-26T07:40:32.058Z,66.49
2022-08-26T07:50:49.375Z,62.85
2022-08-26T08:00:51.783Z,60.15
2022-08-26T08:10:55.192Z,61.22
2022-08-26T08:21:10.800Z,57.75
2022-08-26T08:31:21.600Z,56.14
2022-08-26T08:41:29.888Z,56.67
2022-08-26T08:51:31.575Z,58.42
2022-08-26T09:01:35.217Z,59.49
2022-08-26T09:11:36.783Z,57.77
2022-08-26T09:21:38.358Z,55.50
2022-08-26T09:31:41.404Z,54.93
2022-08-26T09:41:42.735Z,52.26
2022-08-26T09:51:44.595Z,50.38
2022-08-26T10:01:53.161Z,50.37
2022-08-26T10:11:54.686Z,49.53
2022-08-26T10:21:56.067Z,47.79
2022-08-26T10:31:58.797Z,48.50
2022-08-26T10:42:05.189Z,46.73
2022-08-26T10:52:12.391Z,44.62
2022-08-26T11:02:21.521Z,43.92
2022-08-26T11:12:26.048Z,43.83
2022-08-26T11:22:27.327Z,43.17
2022-08-26T11:32:28.680Z,42.98
2022-08-26T11:42:30.037Z,42.81
2022-08-26T11:52:31.370Z,41.55
2022-08-26T12:02:33.868Z,40.78
2022-08-26T12:12:37.354Z,39.23
2022-08-26T12:22:38.933Z,38.96
2022-08-26T12:32:57.311Z,39.29
2022-08-26T12:43:00.429Z,39.51
2022-08-26T12:53:01.739Z,39.25
2022-08-26T13:03:06.399Z,38.79
2022-08-26T13:13:07.975Z,38.56
2022-08-26T13:23:09.584Z,39.69
2022-08-26T13:33:12.267Z,39.43
2022-08-26T13:43:15.893Z,39.76
2022-08-26T13:53:17.375Z,38.99
2022-08-26T14:03:18.706Z,44.04
2022-08-26T14:13:20.201Z,45.42
2022-08-26T14:23:22.725Z,45.67
2022-08-26T14:33:24.367Z,45.45
2022-08-26T14:43:26.209Z,48.02
2022-08-26T14:53:46.203Z,47.87
2022-08-26T15:03:47.554Z,50.79
2022-08-26T15:13:48.881Z,51.14
2022-08-26T15:23:50.221Z,52.04
2022-08-26T15:33:52.642Z,51.91
2022-08-26T15:43:53.987Z,51.93
2022-08-26T15:53:58.604Z,51.00
2022-08-26T16:03:59.967Z,51.13
2022-08-26T16:14:01.319Z,48.35
2022-08-26T16:24:03.370Z,48.42
2022-08-26T16:34:04.765Z,48.82
2022-08-26T16:44:06.132Z,50.65
2022-08-26T16:54:07.771Z,52.50
2022-08-26T17:04:09.158Z,52.79
2022-08-26T17:14:10.473Z,55.97
2022-08-26T17:24:11.773Z,64.51
2022-08-26T17:34:13.149Z,67.95
2022-08-26T17:44:14.490Z,66.97
2022-08-26T17:54:15.804Z,69.01
2022-08-26T18:04:17.617Z,73.57
2022-08-26T18:14:19.135Z,74.94
2022-08-26T18:24:20.459Z,76.67
2022-08-26T18:34:21.780Z,79.00
2022-08-26T18:44:26.185Z,82.16
2022-08-26T18:54:27.503Z,82.55
2022-08-26T19:04:28.812Z,87.39
2022-08-26T19:14:30.178Z,89.94
2022-08-26T19:24:31.567Z,92.91
2022-08-26T19:34:32.916Z,92.13
2022-08-26T19:44:53.019Z,93.49
2022-08-26T19:54:54.280Z,94.85
2022-08-26T20:04:55.686Z,93.27
2022-08-26T20:14:56.955Z,92.08
2022-08-26T20:24:58.324Z,89.61
2022-08-26T20:35:00.896Z,88.50
2022-08-26T20:45:02.667Z,89.24
2022-08-26T20:55:03.980Z,88.58
2022-08-26T21:05:05.456Z,87.49
2022-08-26T21:15:07.354Z,94.94
2022-08-26T21:25:08.688Z,100.00
2022-08-26T21:35:10.015Z,100.00
2022-08-26T21:45:11.358Z,100.00
2022-08-26T21:55:12.720Z,100.00
2022-08-26T22:05:14.067Z,100.00
2022-08-26T22:15:15.840Z,100.00
2022-08-26T22:25:17.190Z,100.00
2022-08-26T22:35:28.716Z,100.00
2022-08-26T22:45:32.147Z,100.00
2022-08-26T22:55:33.509Z,100.00
2022-08-26T23:05:34.888Z,100.00
2022-08-26T23:15:36.298Z,100.00
2022-08-26T23:25:37.657Z,100.00
2022-08-26T23:35:38.979Z,100.00
2022-08-26T23:45:42.916Z,100.00
2022-08-26T23:55:44.304Z,100.00
